createdAt,value
2018-01-19T00:00:33.067Z,7.47
2018-01-19T00:03:05.618Z,8.97
2018-01-19T00:05:34.629Z,5.30
2018-01-19T00:08:06.453Z,8.95
2018-01-19T00:10:36.253Z,8.03
2018-01-19T00:13:04.437Z,8.40
2018-01-19T00:15:33.137Z,7.60
2018-01-19T00:18:02.533Z,13.43
2018-01-19T00:20:30.822Z,6.97
2018-01-19T00:23:01.092Z,5.87
2018-01-19T00:25:29.205Z,8.37
2018-01-19T00:27:57.302Z,6.67
2018-01-19T00:30:25.384Z,7.13
2018-01-19T00:32:53.660Z,7.77
2018-01-19T00:35:22.551Z,6.10
2018-01-19T00:37:50.959Z,7.50
2018-01-19T00:40:19.097Z,13.70
2018-01-19T00:42:48.017Z,7.40
2018-01-19T00:45:16.228Z,7.93
2018-01-19T00:47:44.189Z,8.23
2018-01-19T00:50:12.430Z,7.17
2018-01-19T00:52:40.668Z,6.20
2018-01-19T00:55:09.003Z,4.57
2018-01-19T00:57:37.041Z,5.93
2018-01-19T01:00:06.330Z,4.83
2018-01-19T01:02:37.340Z,4.20
2018-01-19T01:05:06.167Z,6.07
2018-01-19T01:07:34.551Z,5.57
2018-01-19T01:10:11.469Z,5.17
2018-01-19T01:12:39.557Z,5.20
2018-01-19T01:15:07.887Z,5.00
2018-01-19T01:17:36.877Z,6.27
2018-01-19T01:20:07.311Z,6.77
2018-01-19T01:22:36.799Z,6.43
2018-01-19T01:25:05.126Z,6.93
2018-01-19T01:27:36.829Z,6.83
2018-01-19T01:30:05.157Z,7.57
2018-01-19T01:32:34.260Z,7.47
2018-01-19T01:35:02.743Z,4.40
2018-01-19T01:37:36.188Z,4.27
2018-01-19T01:40:04.643Z,6.53
2018-01-19T01:42:35.229Z,7.37
2018-01-19T01:45:05.854Z,6.17
2018-01-19T01:47:33.903Z,7.20
2018-01-19T01:50:04.004Z,7.27
2018-01-19T01:52:48.555Z,6.13
2018-01-19T01:55:16.672Z,6.80
2018-01-19T01:57:44.576Z,4.83
2018-01-19T02:00:12.575Z,7.77
2018-01-19T02:02:41.923Z,5.13
2018-01-19T02:05:11.277Z,7.13
2018-01-19T02:07:39.550Z,6.40
2018-01-19T02:10:07.491Z,6.83
2018-01-19T02:12:35.940Z,4.87
2018-01-19T02:15:05.829Z,8.73
2018-01-19T02:17:34.192Z,6.57
2018-01-19T02:20:02.164Z,5.30
2018-01-19T02:22:30.263Z,8.73
2018-01-19T02:24:58.179Z,5.95
2018-01-19T02:27:26.340Z,6.47
2018-01-19T02:29:56.788Z,6.18
2018-01-19T02:32:25.729Z,7.22
2018-01-19T02:34:53.613Z,5.83
2018-01-19T02:37:21.522Z,7.30
2018-01-19T02:39:49.707Z,7.80
2018-01-19T02:42:17.958Z,7.63
2018-01-19T02:44:48.079Z,9.13
2018-01-19T02:47:16.827Z,11.10
2018-01-19T02:49:44.781Z,9.57
2018-01-19T02:52:12.802Z,10.63
2018-01-19T02:54:41.859Z,13.57
2018-01-19T02:57:10.015Z,9.63
2018-01-19T02:59:38.413Z,9.75
2018-01-19T03:02:06.426Z,9.70
2018-01-19T03:04:34.532Z,11.60
2018-01-19T03:07:07.579Z,10.48
2018-01-19T03:09:35.619Z,13.90
2018-01-19T03:12:03.890Z,12.20
2018-01-19T03:14:34.280Z,10.43
2018-01-19T03:17:03.318Z,9.90
2018-01-19T03:19:31.291Z,10.90
2018-01-19T03:21:59.400Z,11.38
2018-01-19T03:24:28.217Z,12.23
2018-01-19T03:26:57.177Z,13.68
2018-01-19T03:29:25.426Z,12.47
2018-01-19T03:31:53.847Z,14.85
2018-01-19T03:34:23.845Z,12.70
2018-01-19T03:36:51.862Z,14.68
2018-01-19T03:39:19.899Z,13.02
2018-01-19T03:41:48.228Z,14.03
2018-01-19T03:44:16.198Z,14.87
2018-01-19T03:46:44.164Z,12.18
2018-01-19T03:49:12.280Z,12.75
2018-01-19T03:51:40.437Z,14.02
2018-01-19T03:54:08.828Z,9.30
2018-01-19T03:56:36.857Z,10.88
2018-01-19T03:59:04.857Z,14.70
2018-01-19T04:01:32.948Z,7.17
2018-01-19T04:04:01.375Z,6.43
2018-01-19T04:06:30.092Z,7.25
2018-01-19T04:09:02.149Z,8.45
2018-01-19T04:11:30.327Z,8.50
2018-01-19T04:13:58.794Z,8.07
2018-01-19T04:16:26.928Z,7.75
2018-01-19T04:18:54.891Z,8.33
2018-01-19T04:21:27.095Z,7.53
2018-01-19T04:23:55.047Z,6.45
2018-01-19T04:26:23.134Z,7.78
2018-01-19T04:28:52.000Z,5.90
2018-01-19T04:31:20.184Z,7.07
2018-01-19T04:33:48.337Z,6.53
2018-01-19T04:36:16.407Z,7.00
2018-01-19T04:38:44.404Z,11.33
2018-01-19T04:41:14.192Z,6.97
2018-01-19T04:43:42.212Z,6.25
2018-01-19T04:46:15.564Z,6.65
2018-01-19T04:48:58.797Z,5.30
2018-01-19T04:51:32.743Z,4.15
2018-01-19T04:54:03.689Z,5.72
2018-01-19T04:56:31.901Z,5.75
2018-01-19T04:58:59.989Z,7.00
2018-01-19T05:01:28.609Z,6.23
2018-01-19T05:03:57.560Z,4.10
2018-01-19T05:06:27.694Z,5.10
2018-01-19T05:08:56.753Z,3.15
2018-01-19T05:11:25.058Z,3.77
2018-01-19T05:13:54.248Z,2.92
2018-01-19T05:18:58.687Z,3.97
2018-01-19T05:21:30.847Z,2.03
2018-01-19T05:24:36.104Z,2.12
2018-01-19T05:27:04.681Z,4.55
2018-01-19T05:29:33.866Z,3.30
2018-01-19T05:32:02.881Z,2.40
2018-01-19T05:34:30.932Z,2.60
2018-01-19T05:36:58.928Z,2.65
2018-01-19T05:39:27.181Z,2.83
2018-01-19T05:41:55.217Z,2.45
2018-01-19T05:44:33.526Z,2.83
2018-01-19T05:47:01.809Z,3.42
2018-01-19T05:49:48.905Z,3.75
2018-01-19T05:53:54.786Z,5.12
2018-01-19T05:56:23.182Z,2.80
2018-01-19T05:58:51.369Z,5.07
2018-01-19T06:01:20.368Z,4.20
2018-01-19T06:03:48.414Z,2.67
2018-01-19T06:06:16.535Z,2.80
2018-01-19T06:08:44.448Z,1.73
2018-01-19T06:11:12.568Z,2.30
2018-01-19T06:13:40.550Z,4.70
2018-01-19T06:16:08.767Z,3.08
2018-01-19T06:19:55.151Z,2.37
2018-01-19T06:22:23.096Z,3.23
2018-01-19T06:24:51.591Z,2.72
2018-01-19T06:27:26.270Z,3.00
2018-01-19T06:29:57.478Z,4.43
2018-01-19T06:32:26.718Z,5.50
2018-01-19T06:34:54.796Z,6.07
2018-01-19T06:37:24.407Z,6.32
2018-01-19T06:40:26.349Z,3.53
2018-01-19T06:42:55.739Z,3.35
2018-01-19T06:45:25.038Z,5.55
2018-01-19T06:47:58.501Z,3.70
2018-01-19T06:50:28.047Z,4.68
2018-01-19T06:52:56.828Z,4.57
2018-01-19T06:55:25.030Z,2.75
2018-01-19T06:57:55.225Z,4.57
2018-01-19T07:00:23.577Z,2.75
2018-01-19T07:02:51.868Z,3.47
2018-01-19T07:05:20.212Z,3.40
2018-01-19T07:07:51.634Z,2.97
2018-01-19T07:10:20.319Z,2.65
2018-01-19T07:12:49.165Z,5.63
2018-01-19T07:15:17.675Z,6.37
2018-01-19T07:17:45.769Z,2.40
2018-01-19T07:20:16.521Z,4.07
2018-01-19T07:22:44.757Z,3.72
2018-01-19T07:25:14.061Z,6.28
2018-01-19T07:27:44.321Z,3.50
2018-01-19T07:30:20.918Z,3.22
2018-01-19T07:32:48.957Z,4.62
2018-01-19T07:35:19.818Z,4.68
2018-01-19T07:37:49.091Z,4.63
2018-01-19T07:40:40.595Z,3.07
2018-01-19T07:43:09.956Z,4.40
2018-01-19T07:45:39.702Z,4.00
2018-01-19T07:48:20.481Z,3.43
2018-01-19T07:50:48.502Z,4.50
2018-01-19T07:53:16.848Z,7.53
2018-01-19T07:55:45.764Z,6.70
2018-01-19T07:58:14.808Z,7.03
2018-01-19T08:00:44.215Z,4.00
2018-01-19T08:03:13.748Z,3.67
2018-01-19T08:05:43.577Z,4.53
2018-01-19T08:08:13.558Z,4.15
2018-01-19T08:10:51.375Z,5.90
2018-01-19T08:13:21.961Z,8.38
2018-01-19T08:15:50.146Z,3.60
2018-01-19T08:18:19.364Z,5.20
2018-01-19T08:20:50.164Z,3.67
2018-01-19T08:23:21.559Z,6.20
2018-01-19T08:25:49.615Z,6.00
2018-01-19T08:28:18.358Z,6.75
2018-01-19T08:30:50.082Z,4.45
2018-01-19T08:33:21.002Z,4.65
2018-01-19T08:35:49.439Z,4.05
2018-01-19T08:38:17.461Z,3.00
2018-01-19T08:40:46.305Z,4.03
2018-01-19T08:43:14.530Z,8.30
2018-01-19T08:45:43.008Z,7.75
2018-01-19T08:48:11.673Z,2.83
2018-01-19T08:50:40.784Z,8.32
2018-01-19T08:53:08.693Z,6.13
2018-01-19T08:55:39.592Z,5.67
2018-01-19T08:58:09.167Z,3.67
2018-01-19T09:00:52.782Z,4.18
2018-01-19T09:03:48.396Z,7.50
2018-01-19T09:06:42.330Z,3.92
2018-01-19T09:09:11.628Z,2.80
2018-01-19T09:12:02.947Z,2.97
2018-01-19T09:14:31.294Z,4.27
2018-01-19T09:16:59.451Z,5.20
2018-01-19T09:19:27.849Z,5.63
2018-01-19T09:21:56.977Z,4.23
2018-01-19T09:24:25.888Z,3.90
2018-01-19T09:26:54.133Z,4.83
2018-01-19T09:29:22.860Z,2.40
2018-01-19T09:31:51.005Z,4.83
2018-01-19T09:34:19.400Z,4.53
2018-01-19T09:36:47.503Z,4.37
2018-01-19T09:39:16.021Z,5.43
2018-01-19T09:41:49.550Z,5.35
2018-01-19T09:44:19.574Z,4.13
2018-01-19T09:46:53.190Z,3.07
2018-01-19T09:49:21.416Z,5.47
2018-01-19T09:51:49.688Z,3.90
2018-01-19T09:54:23.053Z,9.30
2018-01-19T09:56:53.433Z,6.18
2018-01-19T09:59:24.362Z,6.85
2018-01-19T10:02:00.005Z,4.75
2018-01-19T10:04:29.591Z,4.55
2018-01-19T10:06:58.546Z,4.55
2018-01-19T10:09:35.318Z,3.97
2018-01-19T10:12:06.299Z,3.47
2018-01-19T10:14:39.355Z,4.87
2018-01-19T10:17:07.992Z,4.00
2018-01-19T10:19:39.055Z,3.03
2018-01-19T10:22:10.029Z,3.20
2018-01-19T10:24:40.106Z,4.17
2018-01-19T10:27:08.529Z,3.33
2018-01-19T10:29:37.970Z,4.47
2018-01-19T10:32:10.486Z,6.50
2018-01-19T10:34:41.284Z,2.45
2018-01-19T10:37:10.823Z,3.40
2018-01-19T10:39:41.228Z,7.10
2018-01-19T10:42:10.144Z,3.03
2018-01-19T10:44:38.887Z,3.00
2018-01-19T10:47:08.263Z,2.67
2018-01-19T10:49:40.229Z,3.00
2018-01-19T10:52:09.381Z,2.53
2018-01-19T10:54:37.467Z,2.10
2018-01-19T10:57:06.720Z,2.08
2018-01-19T10:59:34.838Z,3.58
2018-01-19T11:02:06.136Z,2.40
2018-01-19T11:04:57.328Z,3.13
2018-01-19T11:07:26.690Z,3.00
2018-01-19T11:09:56.553Z,3.73
2018-01-19T11:12:25.689Z,4.73
2018-01-19T11:14:54.558Z,3.70
2018-01-19T11:17:22.975Z,3.83
2018-01-19T11:19:51.386Z,3.70
2018-01-19T11:22:19.966Z,3.70
2018-01-19T11:24:50.866Z,5.60
2018-01-19T11:27:24.863Z,5.17
2018-01-19T11:29:53.640Z,4.77
2018-01-19T11:32:21.738Z,7.00
2018-01-19T11:35:18.132Z,4.37
2018-01-19T11:37:46.236Z,3.77
2018-01-19T11:40:15.297Z,4.17
2018-01-19T11:42:43.626Z,4.40
2018-01-19T11:45:11.809Z,4.97
2018-01-19T11:47:41.381Z,5.87
2018-01-19T11:50:09.631Z,5.67
2018-01-19T11:52:42.333Z,3.13
2018-01-19T11:55:10.575Z,7.37
2018-01-19T11:57:51.680Z,6.10
2018-01-19T12:00:25.984Z,3.33
2018-01-19T12:02:54.601Z,7.50
2018-01-19T12:05:23.914Z,5.73
2018-01-19T12:08:13.718Z,4.27
2018-01-19T12:10:42.043Z,4.20
2018-01-19T12:13:10.413Z,3.67
2018-01-19T12:15:42.217Z,8.20
2018-01-19T12:18:16.948Z,5.87
2018-01-19T12:20:49.426Z,4.20
2018-01-19T12:23:36.484Z,5.57
2018-01-19T12:26:20.302Z,4.57
2018-01-19T12:29:10.057Z,7.13
2018-01-19T12:31:42.373Z,4.50
2018-01-19T12:34:10.497Z,6.90
2018-01-19T12:36:39.631Z,6.73
2018-01-19T12:39:08.555Z,4.80
2018-01-19T12:41:37.043Z,6.60
2018-01-19T12:44:11.451Z,5.40
2018-01-19T12:46:39.464Z,5.90
2018-01-19T12:49:14.767Z,8.90
2018-01-19T12:51:48.927Z,4.40
2018-01-19T12:54:17.755Z,4.47
2018-01-19T12:56:52.283Z,6.30
2018-01-19T12:59:20.482Z,8.27
2018-01-19T13:01:52.591Z,7.43
2018-01-19T13:04:21.474Z,8.30
2018-01-19T13:10:18.780Z,9.97
2018-01-19T13:12:52.594Z,4.33
2018-01-19T13:15:20.683Z,3.97
2018-01-19T13:17:48.818Z,4.17
2018-01-19T13:20:19.387Z,6.57
2018-01-19T13:22:49.727Z,7.83
2018-01-19T13:25:19.164Z,7.00
2018-01-19T13:27:48.230Z,5.40
2018-01-19T13:30:17.087Z,5.07
2018-01-19T13:32:46.118Z,7.20
2018-01-19T13:35:37.731Z,5.73
2018-01-19T13:38:38.288Z,6.60
2018-01-19T13:41:06.700Z,4.33
2018-01-19T13:43:35.573Z,4.60
2018-01-19T13:46:03.984Z,5.07
2018-01-19T13:48:33.325Z,5.13
2018-01-19T13:51:01.565Z,2.67
2018-01-19T13:53:29.611Z,3.27
2018-01-19T13:56:00.779Z,5.80
2018-01-19T13:58:30.273Z,6.70
2018-01-19T14:00:58.798Z,7.37
2018-01-19T14:03:27.734Z,3.13
2018-01-19T14:05:58.873Z,5.93
2018-01-19T14:08:29.512Z,5.33
2018-01-19T14:11:00.896Z,3.87
2018-01-19T14:13:29.906Z,4.00
2018-01-19T14:15:59.188Z,6.33
2018-01-19T14:18:27.544Z,6.00
2018-01-19T14:20:57.344Z,7.20
2018-01-19T14:23:33.458Z,5.67
2018-01-19T14:29:26.775Z,5.73
2018-01-19T14:32:07.921Z,3.63
2018-01-19T14:34:38.278Z,4.57
2018-01-19T14:37:07.211Z,3.97
2018-01-19T14:40:02.939Z,3.03
2018-01-19T14:42:31.394Z,5.07
2018-01-19T14:45:00.183Z,5.83
2018-01-19T14:47:30.113Z,5.07
2018-01-19T14:49:58.601Z,8.53
2018-01-19T14:52:27.485Z,8.77
2018-01-19T14:54:57.130Z,4.87
2018-01-19T14:57:25.461Z,5.37
2018-01-19T14:59:54.469Z,8.20
2018-01-19T15:02:22.845Z,4.80
2018-01-19T15:04:51.900Z,5.33
2018-01-19T15:08:10.216Z,3.93
2018-01-19T15:10:39.998Z,6.30
2018-01-19T15:13:08.874Z,4.57
2018-01-19T15:15:40.792Z,7.03
2018-01-19T15:21:37.593Z,5.10
2018-01-19T15:24:07.312Z,5.37
2018-01-19T15:26:38.062Z,5.57
2018-01-19T15:29:09.099Z,5.37
2018-01-19T15:34:04.396Z,6.97
2018-01-19T15:36:34.042Z,6.37
2018-01-19T15:39:11.454Z,9.03
2018-01-19T15:41:39.619Z,6.00
2018-01-19T15:44:13.357Z,8.17
2018-01-19T15:47:07.119Z,8.13
2018-01-19T15:49:57.699Z,11.97
2018-01-19T15:52:28.308Z,6.33
2018-01-19T15:54:58.249Z,3.83
2018-01-19T15:57:26.684Z,7.40
2018-01-19T15:59:57.048Z,6.60
2018-01-19T16:02:28.197Z,5.60
2018-01-19T16:04:56.597Z,4.77
2018-01-19T16:07:25.693Z,5.10
2018-01-19T16:10:02.847Z,8.37
2018-01-19T16:12:32.068Z,8.93
2018-01-19T16:15:04.656Z,6.87
2018-01-19T16:17:43.840Z,7.77
2018-01-19T16:20:13.099Z,4.70
2018-01-19T16:22:55.393Z,5.67
2018-01-19T16:25:25.504Z,7.47
2018-01-19T16:27:53.934Z,7.90
2018-01-19T16:30:23.351Z,8.03
2018-01-19T16:32:52.519Z,6.30
2018-01-19T16:35:32.400Z,6.03
2018-01-19T16:38:34.006Z,4.97
2018-01-19T16:44:12.633Z,6.27
2018-01-19T16:46:41.876Z,5.10
2018-01-19T16:49:14.868Z,5.27
2018-01-19T16:51:46.630Z,10.47
2018-01-19T16:54:17.248Z,9.13
2018-01-19T16:56:48.244Z,7.60
2018-01-19T16:59:16.751Z,6.03
2018-01-19T17:01:45.247Z,9.13
2018-01-19T17:04:13.822Z,9.43
2018-01-19T17:06:51.806Z,9.67
2018-01-19T17:09:28.080Z,7.93
2018-01-19T17:11:57.589Z,8.47
2018-01-19T17:14:26.010Z,11.10
2018-01-19T17:16:55.335Z,7.90
2018-01-19T17:19:27.755Z,9.77
2018-01-19T17:21:56.198Z,6.97
2018-01-19T17:27:40.100Z,9.57
2018-01-19T17:30:13.090Z,13.03
2018-01-19T17:33:27.589Z,14.47
2018-01-19T17:36:01.255Z,11.70
2018-01-19T17:44:33.451Z,11.80
2018-01-19T17:47:01.858Z,9.80
2018-01-19T17:49:40.533Z,11.23
2018-01-19T17:52:10.293Z,10.20
2018-01-19T17:57:01.673Z,11.10
2018-01-19T17:59:30.794Z,11.97
2018-01-19T18:02:00.533Z,10.52
2018-01-19T18:04:32.947Z,13.65
2018-01-19T18:07:05.301Z,17.13
2018-01-19T18:09:34.036Z,11.12
2018-01-19T18:12:06.921Z,10.68
2018-01-19T18:14:40.391Z,16.47
2018-01-19T18:18:00.258Z,9.95
2018-01-19T18:20:28.810Z,12.03
2018-01-19T18:23:02.063Z,9.00
2018-01-19T18:25:30.962Z,10.03
2018-01-19T18:27:59.178Z,10.70
2018-01-19T18:30:28.477Z,14.50
2018-01-19T18:32:57.065Z,14.83
2018-01-19T18:35:27.166Z,15.50
2018-01-19T18:37:58.594Z,15.73
2018-01-19T18:40:30.794Z,20.47
2018-01-19T18:43:00.508Z,11.48
2018-01-19T18:45:30.168Z,14.10
2018-01-19T18:47:59.151Z,14.87
2018-01-19T18:50:31.996Z,12.60
2018-01-19T18:53:05.125Z,12.07
2018-01-19T18:55:47.169Z,11.80
2018-01-19T19:01:21.918Z,12.43
2018-01-19T19:03:53.496Z,13.57
2018-01-19T19:06:29.145Z,15.20
2018-01-19T19:12:06.814Z,16.33
2018-01-19T19:14:37.753Z,12.77
2018-01-19T19:17:19.332Z,10.73
2018-01-19T19:19:50.900Z,14.05
2018-01-19T19:22:21.871Z,15.50
2018-01-19T19:24:54.020Z,8.82
2018-01-19T19:27:26.074Z,13.20
2018-01-19T19:29:56.531Z,10.53
2018-01-19T19:32:26.282Z,11.50
2018-01-19T19:34:56.633Z,12.37
2018-01-19T19:37:26.958Z,10.30
2018-01-19T19:39:57.163Z,9.75
2018-01-19T19:42:29.654Z,12.77
2018-01-19T19:45:00.364Z,11.43
2018-01-19T19:47:31.505Z,13.95
2018-01-19T19:50:11.624Z,9.10
2018-01-19T19:52:45.221Z,9.80
2018-01-19T19:55:18.876Z,8.65
2018-01-19T19:57:52.439Z,11.67
2018-01-19T20:00:22.809Z,9.52
2018-01-19T20:02:54.323Z,11.95
2018-01-19T20:05:27.511Z,8.85
2018-01-19T20:08:00.529Z,15.68
2018-01-19T20:10:32.031Z,8.73
2018-01-19T20:13:04.310Z,11.27
2018-01-19T20:15:36.941Z,10.70
2018-01-19T20:21:43.147Z,14.17
2018-01-19T20:24:39.535Z,15.23
2018-01-19T20:27:20.317Z,7.63
2018-01-19T20:29:53.354Z,9.65
2018-01-19T20:32:23.798Z,7.97
2018-01-19T20:34:58.391Z,11.30
2018-01-19T20:37:31.313Z,7.37
2018-01-19T20:40:02.536Z,9.33
2018-01-19T20:42:34.889Z,12.75
2018-01-19T20:45:08.486Z,9.10
2018-01-19T20:47:40.273Z,17.20
2018-01-19T20:50:15.666Z,10.93
2018-01-19T20:52:44.758Z,7.53
2018-01-19T20:55:14.141Z,10.57
2018-01-19T20:57:43.918Z,10.90
2018-01-19T21:02:48.746Z,9.30
2018-01-19T21:05:17.225Z,10.07
2018-01-19T21:07:47.896Z,10.70
2018-01-19T21:10:16.145Z,10.40
2018-01-19T21:12:45.350Z,10.57
2018-01-19T21:15:15.978Z,35.37
2018-01-19T21:17:44.250Z,10.45
2018-01-19T21:20:12.909Z,8.43
2018-01-19T21:22:41.913Z,28.85
2018-01-19T21:25:10.563Z,23.03
2018-01-19T21:28:17.889Z,18.23
2018-01-19T21:30:47.230Z,33.92
2018-01-19T21:33:15.631Z,36.83
2018-01-19T21:35:45.406Z,15.45
2018-01-19T21:38:14.129Z,9.80
2018-01-19T21:40:42.708Z,12.60
2018-01-19T21:43:19.807Z,9.98
2018-01-19T21:45:53.878Z,12.70
2018-01-19T21:51:48.916Z,12.93
2018-01-19T21:54:19.323Z,9.27
2018-01-19T21:57:06.033Z,11.38
2018-01-19T22:02:11.956Z,10.80
2018-01-19T22:04:43.797Z,7.30
2018-01-19T22:07:13.920Z,10.73
2018-01-19T22:09:43.179Z,9.43
2018-01-19T22:12:11.813Z,11.00
2018-01-19T22:14:41.717Z,10.82
2018-01-19T22:17:10.578Z,10.20
2018-01-19T22:19:42.728Z,9.68
2018-01-19T22:22:12.062Z,47.35
2018-01-19T22:24:40.333Z,19.15
2018-01-19T22:27:08.587Z,12.88
2018-01-19T22:29:39.867Z,11.57
2018-01-19T22:32:08.343Z,9.75
2018-01-19T22:34:37.052Z,14.90
2018-01-19T22:37:09.077Z,9.23
2018-01-19T22:39:39.790Z,10.77
2018-01-19T22:42:09.446Z,10.25
2018-01-19T22:44:38.001Z,12.83
2018-01-19T22:47:06.966Z,12.20
2018-01-19T22:49:35.009Z,9.88
2018-01-19T22:52:03.371Z,11.75
2018-01-19T22:54:31.797Z,14.18
2018-01-19T22:56:59.802Z,12.90
2018-01-19T22:59:28.195Z,10.10
2018-01-19T23:01:56.232Z,10.00
2018-01-19T23:04:25.302Z,11.00
2018-01-19T23:06:54.397Z,11.07
2018-01-19T23:09:23.411Z,10.43
2018-01-19T23:11:52.732Z,10.85
2018-01-19T23:14:21.252Z,10.60
2018-01-19T23:16:49.622Z,15.63
2018-01-19T23:19:18.142Z,11.85
2018-01-19T23:21:46.522Z,11.00
2018-01-19T23:24:15.104Z,12.00
2018-01-19T23:26:49.167Z,13.50
2018-01-19T23:29:17.746Z,12.00
2018-01-19T23:31:46.158Z,13.45
2018-01-19T23:34:14.745Z,8.13
2018-01-19T23:36:42.982Z,10.60
2018-01-19T23:39:11.298Z,14.60
2018-01-19T23:41:39.376Z,9.73
2018-01-19T23:44:07.892Z,11.15
2018-01-19T23:46:37.057Z,9.65
2018-01-19T23:49:05.305Z,14.05
2018-01-19T23:51:35.262Z,14.05
2018-01-19T23:54:04.422Z,9.48
2018-01-19T23:56:34.540Z,11.00
2018-01-19T23:59:04.351Z,14.15
